ěÝzenÝ letovÚho provozu ╚eskÚ republiky
Letiste: LKPD Aktualizace: 23.11.2020 18:30:24  UTC
 METAR LKPD 23.11. 18:30 ...
METAR LKPD 231830Z 21002KT CAVOK 00/00 Q1029 NOSIG RMK BLACK BLU=
 TAF LKPD 23.11. 17:00 ...
TAF LKPD 231700Z 2318/2418 VRB02KT 7000 NSC      BECMG 2322/2400 3000 MIFG BR SCT010      TEMPO 2400/2408 0400 FZFG VV001      BECMG 2409/2411 CAVOK=